Terminal Aerodrome Forecast
Issued by NWS

Home | Current Version | Previous Version | Text Only | Print | Product List | Glossary On
Versions: 1 2 3 4 5 6 7 8 9 10 11 12 13 14 15 16 17 18 19
336
FTUS41 KBTV 241720
TAFMPV
TAF
KMPV 241720Z 2418/2518 VRB04KT P6SM VCSH BKN090
      TEMPO 2418/2422 -SHRA BKN050 OVC090
     FM250100 00000KT P6SM SCT100
     FM250700 00000KT 1SM BR OVC001
     FM251100 00000KT 3SM BR BCFG SCT001
     FM251200 VRB03KT P6SM SKC=

USA.gov is the U.S. government's official web portal to all federal, state and local government web resources and services.